createdAt,value
2018-07-09T00:00:55.997Z,15.51
2018-07-09T00:01:55.990Z,15.51
2018-07-09T00:02:55.979Z,15.52
2018-07-09T00:03:55.988Z,15.49
2018-07-09T00:04:55.956Z,15.56
2018-07-09T00:05:55.941Z,15.51
2018-07-09T00:06:55.958Z,15.39
2018-07-09T00:07:55.921Z,15.35
2018-07-09T00:08:55.900Z,15.30
2018-07-09T00:09:55.920Z,15.36
2018-07-09T00:10:55.886Z,15.41
2018-07-09T00:11:55.867Z,15.36
2018-07-09T00:12:55.864Z,15.28
2018-07-09T00:13:55.849Z,15.39
2018-07-09T00:14:55.868Z,15.38
2018-07-09T00:15:55.823Z,15.38
2018-07-09T00:16:55.809Z,15.41
2018-07-09T00:17:55.807Z,15.33
2018-07-09T00:18:55.787Z,15.31
2018-07-09T00:19:55.806Z,15.39
2018-07-09T00:20:55.769Z,15.33
2018-07-09T00:21:55.758Z,15.30
2018-07-09T00:22:55.753Z,15.38
2018-07-09T00:23:55.730Z,15.35
2018-07-09T00:24:55.744Z,15.30
2018-07-09T00:25:55.712Z,15.27
2018-07-09T00:26:55.695Z,15.31
2018-07-09T00:27:55.693Z,15.24
2018-07-09T00:28:55.676Z,15.28
2018-07-09T00:29:55.691Z,15.35
2018-07-09T00:30:55.658Z,15.27
2018-07-09T00:31:55.646Z,15.21
2018-07-09T00:32:55.630Z,15.20
2018-07-09T00:33:55.621Z,15.26
2018-07-09T00:34:55.628Z,15.27
2018-07-09T00:35:55.599Z,15.15
2018-07-09T00:36:55.588Z,15.20
2018-07-09T00:37:55.575Z,15.13
2018-07-09T00:38:55.563Z,15.13
2018-07-09T00:39:55.577Z,15.06
2018-07-09T00:40:55.536Z,15.19
2018-07-09T00:41:55.537Z,15.17
2018-07-09T00:42:55.514Z,15.13
2018-07-09T00:43:55.507Z,15.05
2018-07-09T00:44:55.525Z,15.11
2018-07-09T00:45:55.484Z,15.01
2018-07-09T00:46:55.469Z,15.03
2018-07-09T00:47:55.464Z,15.02
2018-07-09T00:48:55.446Z,14.95
2018-07-09T00:49:55.442Z,15.08
2018-07-09T00:50:55.455Z,15.02
2018-07-09T00:51:55.412Z,14.86
2018-07-09T00:52:55.409Z,14.94
2018-07-09T00:53:55.389Z,14.99
2018-07-09T00:54:55.384Z,14.90
2018-07-09T00:55:55.388Z,14.91
2018-07-09T00:56:55.361Z,14.93
2018-07-09T00:57:55.343Z,14.90
2018-07-09T00:58:55.330Z,14.81
2018-07-09T00:59:55.327Z,14.81
2018-07-09T01:00:55.341Z,14.84
2018-07-09T01:01:55.304Z,14.83
2018-07-09T01:02:55.287Z,14.80
2018-07-09T01:03:55.278Z,14.80
2018-07-09T01:04:55.264Z,14.80
2018-07-09T01:05:55.256Z,14.87
2018-07-09T01:06:55.262Z,14.78
2018-07-09T01:07:55.232Z,14.81
2018-07-09T01:08:55.225Z,14.67
2018-07-09T01:09:55.204Z,14.78
2018-07-09T01:10:55.199Z,14.69
2018-07-09T01:11:55.209Z,14.69
2018-07-09T01:12:55.170Z,14.71
2018-07-09T01:13:55.157Z,14.78
2018-07-09T01:14:55.146Z,14.71
2018-07-09T01:15:55.145Z,14.72
2018-07-09T01:16:55.147Z,14.71
2018-07-09T01:17:55.121Z,14.69
2018-07-09T01:18:55.144Z,14.65
2018-07-09T01:19:55.095Z,14.65
2018-07-09T01:20:55.086Z,14.52
2018-07-09T01:21:55.067Z,14.64
2018-07-09T01:22:55.071Z,14.56
2018-07-09T01:23:55.043Z,14.46
2018-07-09T01:24:55.076Z,14.60
2018-07-09T01:25:55.023Z,14.52
2018-07-09T01:26:55.016Z,14.46
2018-07-09T01:27:55.003Z,14.47
2018-07-09T01:28:55.000Z,14.42
2018-07-09T01:29:54.979Z,14.46
2018-07-09T01:30:54.997Z,14.39
2018-07-09T01:31:54.955Z,14.39
2018-07-09T01:32:54.940Z,14.37
2018-07-09T01:33:54.942Z,14.37
2018-07-09T01:34:54.927Z,14.28
2018-07-09T01:35:54.907Z,14.39
2018-07-09T01:36:54.926Z,14.31
2018-07-09T01:37:54.891Z,14.37
2018-07-09T01:38:54.885Z,14.28
2018-07-09T01:39:54.862Z,14.29
2018-07-09T01:40:54.860Z,14.31
2018-07-09T01:41:54.869Z,14.25
2018-07-09T01:42:54.832Z,14.14
2018-07-09T01:43:54.819Z,14.27
2018-07-09T01:44:54.811Z,14.17
2018-07-09T01:45:54.794Z,14.04
2018-07-09T01:46:54.793Z,14.14
2018-07-09T01:47:54.798Z,14.12
2018-07-09T01:48:54.763Z,14.01
2018-07-09T01:49:54.756Z,14.01
2018-07-09T01:50:54.735Z,14.04
2018-07-09T01:51:54.761Z,13.94
2018-07-09T01:52:54.717Z,13.94
2018-07-09T01:53:54.709Z,13.96
2018-07-09T01:54:54.695Z,13.89
2018-07-09T01:55:54.680Z,13.84
2018-07-09T01:56:54.674Z,13.81
2018-07-09T01:57:54.691Z,13.77
2018-07-09T01:58:54.685Z,13.79
2018-07-09T01:59:54.631Z,13.80
2018-07-09T02:00:54.628Z,13.79
2018-07-09T02:01:54.610Z,13.63
2018-07-09T02:02:54.601Z,13.67
2018-07-09T02:03:54.617Z,13.65
2018-07-09T02:04:54.574Z,13.61
2018-07-09T02:05:54.567Z,13.55
2018-07-09T02:06:54.554Z,13.62
2018-07-09T02:07:54.539Z,13.58
2018-07-09T02:08:54.565Z,13.62
2018-07-09T02:09:54.523Z,13.52
2018-07-09T02:10:54.514Z,13.55
2018-07-09T02:11:54.493Z,13.46
2018-07-09T02:12:54.490Z,13.61
2018-07-09T02:13:54.474Z,13.41
2018-07-09T02:14:54.498Z,13.52
2018-07-09T02:15:54.454Z,13.37
2018-07-09T02:16:54.442Z,13.38
2018-07-09T02:17:54.428Z,13.37
2018-07-09T02:18:54.416Z,13.41
2018-07-09T02:19:54.409Z,13.38
2018-07-09T02:20:54.421Z,13.30
2018-07-09T02:21:54.385Z,13.29
2018-07-09T02:22:54.371Z,13.29
2018-07-09T02:23:54.361Z,13.27
2018-07-09T02:24:54.349Z,13.36
2018-07-09T02:25:54.368Z,13.33
2018-07-09T02:26:54.324Z,13.32
2018-07-09T02:27:54.320Z,13.33
2018-07-09T02:28:54.303Z,13.29
2018-07-09T02:29:54.295Z,13.22
2018-07-09T02:30:54.336Z,13.17
2018-07-09T02:31:54.303Z,13.18
2018-07-09T02:32:54.260Z,13.06
2018-07-09T02:33:54.241Z,13.11
2018-07-09T02:34:54.230Z,13.12
2018-07-09T02:35:54.222Z,13.04
2018-07-09T02:36:54.208Z,13.06
2018-07-09T02:37:54.227Z,13.06
2018-07-09T02:38:54.192Z,13.07
2018-07-09T02:39:54.173Z,12.93
2018-07-09T02:40:54.171Z,13.03
2018-07-09T02:41:54.154Z,13.03
2018-07-09T02:42:54.201Z,12.85
2018-07-09T02:43:54.125Z,13.02
2018-07-09T02:44:54.119Z,12.95
2018-07-09T02:45:54.110Z,13.02
2018-07-09T02:46:54.097Z,12.93
2018-07-09T02:47:54.081Z,12.87
2018-07-09T02:48:54.100Z,12.82
2018-07-09T02:49:54.065Z,12.79
2018-07-09T02:50:54.054Z,12.78
2018-07-09T02:51:54.039Z,12.74
2018-07-09T02:52:54.025Z,12.75
2018-07-09T02:53:54.014Z,12.77
2018-07-09T02:54:54.021Z,12.67
2018-07-09T02:55:53.995Z,12.67
2018-07-09T02:56:53.982Z,12.67
2018-07-09T02:57:53.976Z,12.67
2018-07-09T02:58:53.989Z,12.67
2018-07-09T02:59:53.949Z,12.60
2018-07-09T03:00:53.964Z,12.63
2018-07-09T03:01:53.927Z,12.63
2018-07-09T03:02:53.911Z,12.62
2018-07-09T03:03:53.898Z,12.51
2018-07-09T03:04:53.907Z,12.49
2018-07-09T03:05:53.876Z,12.46
2018-07-09T03:06:53.861Z,12.54
2018-07-09T03:07:53.856Z,12.51
2018-07-09T03:08:53.873Z,12.48
2018-07-09T03:09:53.826Z,12.49
2018-07-09T03:10:53.863Z,12.54
2018-07-09T03:11:53.807Z,12.62
2018-07-09T03:12:53.791Z,12.57
2018-07-09T03:13:53.777Z,12.56
2018-07-09T03:14:53.805Z,12.60
2018-07-09T03:15:53.752Z,12.48
2018-07-09T03:16:53.749Z,12.46
2018-07-09T03:17:53.731Z,12.48
2018-07-09T03:18:53.722Z,12.52
2018-07-09T03:19:53.707Z,12.37
2018-07-09T03:20:53.730Z,12.33
2018-07-09T03:21:53.685Z,12.26
2018-07-09T03:22:53.671Z,12.29
2018-07-09T03:23:53.664Z,12.33
2018-07-09T03:24:53.649Z,12.30
2018-07-09T03:25:53.639Z,12.38
2018-07-09T03:26:53.649Z,12.29
2018-07-09T03:27:53.611Z,12.26
2018-07-09T03:28:53.603Z,12.19
2018-07-09T03:29:53.594Z,12.15
2018-07-09T03:30:53.581Z,12.09
2018-07-09T03:31:53.564Z,12.08
2018-07-09T03:32:53.580Z,12.09
2018-07-09T03:33:53.548Z,12.11
2018-07-09T03:34:53.539Z,11.99
2018-07-09T03:35:53.516Z,12.11
2018-07-09T03:36:53.507Z,12.13
2018-07-09T03:37:53.496Z,12.04
2018-07-09T03:38:53.509Z,12.08
2018-07-09T03:39:53.478Z,12.05
2018-07-09T03:40:53.461Z,12.02
2018-07-09T03:41:53.446Z,11.99
2018-07-09T03:42:53.435Z,12.05
2018-07-09T03:43:53.425Z,11.97
2018-07-09T03:44:53.443Z,12.06
2018-07-09T03:45:53.396Z,12.01
2018-07-09T03:46:53.386Z,12.02
2018-07-09T03:47:53.378Z,12.04
2018-07-09T03:48:53.369Z,11.97
2018-07-09T03:49:53.348Z,11.86
2018-07-09T03:50:53.359Z,11.87
2018-07-09T03:51:53.334Z,11.97
2018-07-09T03:52:53.323Z,11.85
2018-07-09T03:53:53.305Z,11.93
2018-07-09T03:54:53.298Z,11.94
2018-07-09T03:55:53.316Z,11.99
2018-07-09T03:56:53.269Z,11.97
2018-07-09T03:57:53.261Z,11.96
2018-07-09T03:58:53.242Z,12.06
2018-07-09T03:59:53.242Z,11.96
2018-07-09T04:00:53.226Z,12.01
2018-07-09T04:01:53.248Z,11.90
2018-07-09T04:02:53.201Z,11.87
2018-07-09T04:03:53.187Z,11.99
2018-07-09T04:04:53.179Z,11.97
2018-07-09T04:05:53.163Z,11.93
2018-07-09T04:06:53.157Z,11.99
2018-07-09T04:07:53.160Z,11.94
2018-07-09T04:08:53.134Z,11.87
2018-07-09T04:09:53.118Z,11.93
2018-07-09T04:10:53.100Z,11.93
2018-07-09T04:11:53.099Z,11.90
2018-07-09T04:12:53.118Z,11.93
2018-07-09T04:13:53.068Z,11.87
2018-07-09T04:14:53.064Z,12.01
2018-07-09T04:15:53.048Z,11.85
2018-07-09T04:16:53.041Z,11.90
2018-07-09T04:17:53.021Z,12.02
2018-07-09T04:18:53.041Z,11.83
2018-07-09T04:19:53.001Z,11.87
2018-07-09T04:20:52.987Z,11.96
2018-07-09T04:21:52.976Z,11.99
2018-07-09T04:22:52.958Z,11.96
2018-07-09T04:23:52.955Z,11.96
2018-07-09T04:24:52.967Z,12.02
2018-07-09T04:25:52.933Z,12.02
2018-07-09T04:26:52.913Z,12.01
2018-07-09T04:27:52.907Z,12.01
2018-07-09T04:28:52.897Z,11.97
2018-07-09T04:29:52.876Z,12.04
2018-07-09T04:30:52.892Z,12.06
2018-07-09T04:31:52.861Z,11.97
2018-07-09T04:32:52.845Z,11.97
2018-07-09T04:33:52.831Z,12.02
2018-07-09T04:34:52.822Z,12.09
2018-07-09T04:35:52.809Z,12.19
2018-07-09T04:36:52.825Z,12.11
2018-07-09T04:37:52.865Z,12.12
2018-07-09T04:38:52.779Z,12.21
2018-07-09T04:39:52.757Z,12.16
2018-07-09T04:40:52.748Z,12.20
2018-07-09T04:41:52.740Z,12.19
2018-07-09T04:42:52.753Z,12.12
2018-07-09T04:43:52.721Z,12.27
2018-07-09T04:44:52.703Z,12.21
2018-07-09T04:45:52.689Z,12.24
2018-07-09T04:46:52.687Z,12.26
2018-07-09T04:47:52.667Z,12.27
2018-07-09T04:48:52.684Z,12.30
2018-07-09T04:49:52.640Z,12.33
2018-07-09T04:50:52.628Z,12.33
2018-07-09T04:51:52.619Z,12.30
2018-07-09T04:52:52.611Z,12.26
2018-07-09T04:53:52.591Z,12.27
2018-07-09T04:54:52.615Z,12.37
2018-07-09T04:55:52.577Z,12.37
2018-07-09T04:56:52.563Z,12.26
2018-07-09T04:57:52.550Z,12.45
2018-07-09T04:58:52.537Z,12.38
2018-07-09T04:59:52.528Z,12.46
2018-07-09T05:00:52.546Z,12.39
2018-07-09T05:01:52.505Z,12.34
2018-07-09T05:02:52.488Z,12.30
2018-07-09T05:03:52.485Z,12.42
2018-07-09T05:04:52.471Z,12.48
2018-07-09T05:05:52.463Z,12.41
2018-07-09T05:06:52.473Z,12.57
2018-07-09T05:07:52.439Z,12.45
2018-07-09T05:08:52.421Z,12.46
2018-07-09T05:09:52.417Z,12.56
2018-07-09T05:10:52.407Z,12.59
2018-07-09T05:11:52.394Z,12.59
2018-07-09T05:12:52.441Z,12.69
2018-07-09T05:13:52.367Z,12.70
2018-07-09T05:14:52.354Z,12.69
2018-07-09T05:15:52.347Z,12.70
2018-07-09T05:16:52.334Z,12.84
2018-07-09T05:17:52.320Z,12.71
2018-07-09T05:18:52.342Z,12.69
2018-07-09T05:19:52.300Z,12.79
2018-07-09T05:20:52.290Z,12.77
2018-07-09T05:21:52.270Z,12.92
2018-07-09T05:22:52.263Z,12.89
2018-07-09T05:23:52.247Z,12.85
2018-07-09T05:24:52.272Z,12.93
2018-07-09T05:25:52.230Z,13.02
2018-07-09T05:26:52.216Z,12.96
2018-07-09T05:27:52.211Z,12.99
2018-07-09T05:28:52.191Z,13.02
2018-07-09T05:29:52.216Z,13.03
2018-07-09T05:30:52.173Z,13.09
2018-07-09T05:31:52.166Z,13.03
2018-07-09T05:32:52.151Z,13.18
2018-07-09T05:33:52.143Z,13.22
2018-07-09T05:34:52.121Z,13.29
2018-07-09T05:35:52.138Z,13.33
2018-07-09T05:36:52.100Z,13.40
2018-07-09T05:37:52.089Z,13.47
2018-07-09T05:38:52.183Z,13.46
2018-07-09T05:39:52.075Z,13.54
2018-07-09T05:40:52.081Z,13.51
2018-07-09T05:41:52.050Z,13.63
2018-07-09T05:42:52.033Z,13.61
2018-07-09T05:43:52.019Z,13.74
2018-07-09T05:44:52.019Z,13.71
2018-07-09T05:45:52.023Z,13.77
2018-07-09T05:46:52.069Z,13.83
2018-07-09T05:47:51.975Z,13.84
2018-07-09T05:48:51.980Z,13.87
2018-07-09T05:49:51.962Z,13.89
2018-07-09T05:50:51.975Z,13.99
2018-07-09T05:51:51.939Z,13.88
2018-07-09T05:52:51.923Z,14.01
2018-07-09T05:53:51.911Z,13.99
2018-07-09T05:54:51.899Z,14.02
2018-07-09T05:55:51.882Z,14.13
2018-07-09T05:56:51.914Z,14.07
2018-07-09T05:57:51.859Z,14.17
2018-07-09T05:58:51.865Z,14.31
2018-07-09T05:59:51.841Z,14.25
2018-07-09T06:00:51.839Z,14.35
2018-07-09T06:01:51.816Z,14.28
2018-07-09T06:02:51.836Z,14.42
2018-07-09T06:03:51.794Z,14.43
2018-07-09T06:04:51.784Z,14.42
2018-07-09T06:05:51.772Z,14.60
2018-07-09T06:06:51.760Z,14.49
2018-07-09T06:07:51.748Z,14.54
2018-07-09T06:08:51.771Z,14.64
2018-07-09T06:09:51.725Z,14.64
2018-07-09T06:10:51.715Z,14.80
2018-07-09T06:11:51.706Z,14.81
2018-07-09T06:12:51.687Z,14.90
2018-07-09T06:13:51.682Z,15.11
2018-07-09T06:14:51.685Z,15.17
2018-07-09T06:15:51.652Z,15.20
2018-07-09T06:16:51.648Z,15.27
2018-07-09T06:17:51.629Z,15.31
2018-07-09T06:18:51.627Z,15.42
2018-07-09T06:19:51.642Z,15.43
2018-07-09T06:20:51.596Z,15.56
2018-07-09T06:21:51.585Z,15.74
2018-07-09T06:22:51.572Z,15.79
2018-07-09T06:23:51.561Z,16.03
2018-07-09T06:24:51.547Z,16.27
2018-07-09T06:25:51.566Z,16.38
2018-07-09T06:26:51.528Z,16.33
2018-07-09T06:27:51.517Z,16.44
2018-07-09T06:28:51.504Z,16.62
2018-07-09T06:29:51.491Z,16.77
2018-07-09T06:30:51.519Z,16.90
2018-07-09T06:31:51.470Z,16.90
2018-07-09T06:32:51.460Z,17.11
2018-07-09T06:33:51.457Z,17.22
2018-07-09T06:34:51.436Z,17.41
2018-07-09T06:35:51.429Z,17.35
2018-07-09T06:36:51.441Z,17.54
2018-07-09T06:37:51.402Z,17.79
2018-07-09T06:38:51.387Z,17.89
2018-07-09T06:39:51.375Z,18.10
2018-07-09T06:40:51.366Z,18.13
2018-07-09T06:41:51.358Z,18.18
2018-07-09T06:42:51.367Z,18.34
2018-07-09T06:43:51.337Z,18.50
2018-07-09T06:44:51.317Z,18.52
2018-07-09T06:45:51.315Z,18.61
2018-07-09T06:46:51.295Z,18.80
2018-07-09T06:47:51.316Z,18.95
2018-07-09T06:48:51.282Z,19.08
2018-07-09T06:49:51.264Z,19.15
2018-07-09T06:50:51.258Z,19.25
2018-07-09T06:51:51.240Z,19.36
2018-07-09T06:52:51.237Z,19.43
2018-07-09T06:53:51.252Z,19.47
2018-07-09T06:54:51.208Z,19.72
2018-07-09T06:55:51.276Z,19.78
2018-07-09T06:56:51.188Z,19.95
2018-07-09T06:57:51.180Z,20.12
2018-07-09T06:58:51.160Z,20.09
2018-07-09T06:59:51.172Z,20.03
2018-07-09T07:00:51.145Z,20.20
2018-07-09T07:01:51.125Z,20.35
2018-07-09T07:02:51.123Z,20.42
2018-07-09T07:03:51.110Z,20.49
2018-07-09T07:04:51.114Z,20.56
2018-07-09T07:05:51.088Z,20.62
2018-07-09T07:06:51.067Z,20.69
2018-07-09T07:07:51.059Z,20.81
2018-07-09T07:08:51.157Z,20.83
2018-07-09T07:09:51.057Z,20.87
2018-07-09T07:10:51.021Z,20.93
2018-07-09T07:11:51.021Z,20.96
2018-07-09T07:12:51.007Z,20.89
2018-07-09T07:13:50.994Z,21.01
2018-07-09T07:14:51.012Z,21.08
2018-07-09T07:15:50.972Z,21.08
2018-07-09T07:16:50.962Z,21.17
2018-07-09T07:17:50.955Z,21.20
2018-07-09T07:18:50.931Z,21.35
2018-07-09T07:19:50.927Z,21.46
2018-07-09T07:20:50.944Z,21.51
2018-07-09T07:21:50.898Z,21.59
2018-07-09T07:22:50.896Z,21.66
2018-07-09T07:23:50.882Z,21.88
2018-07-09T07:24:50.869Z,22.09
2018-07-09T07:25:50.860Z,22.13
2018-07-09T07:26:50.865Z,22.28
2018-07-09T07:27:50.844Z,22.34
2018-07-09T07:28:50.823Z,22.54
2018-07-09T07:29:50.820Z,22.67
2018-07-09T07:30:50.835Z,22.72
2018-07-09T07:31:50.786Z,22.75
2018-07-09T07:32:50.859Z,22.89
2018-07-09T07:33:50.770Z,22.97
2018-07-09T07:34:50.756Z,23.02
2018-07-09T07:35:50.750Z,23.27
2018-07-09T07:36:50.756Z,23.34
2018-07-09T07:37:50.725Z,23.50
2018-07-09T07:38:50.714Z,23.57
2018-07-09T07:39:50.705Z,23.70
2018-07-09T07:40:50.718Z,23.79
2018-07-09T07:41:50.684Z,23.87
2018-07-09T07:42:50.664Z,23.95
2018-07-09T07:43:50.653Z,23.95
2018-07-09T07:44:50.661Z,23.83
2018-07-09T07:45:50.637Z,23.87
2018-07-09T07:46:50.658Z,24.02
2018-07-09T07:47:50.622Z,24.04
2018-07-09T07:48:50.598Z,24.22
2018-07-09T07:49:50.597Z,24.17
2018-07-09T07:50:50.576Z,24.24
2018-07-09T07:51:50.567Z,24.24
2018-07-09T07:52:50.585Z,24.20
2018-07-09T07:53:50.542Z,24.10
2018-07-09T07:54:50.543Z,24.02
2018-07-09T07:55:50.552Z,24.05
2018-07-09T07:56:50.550Z,23.98
2018-07-09T07:57:50.498Z,24.00
2018-07-09T07:58:50.490Z,24.13
2018-07-09T07:59:50.486Z,24.16
2018-07-09T08:00:50.471Z,24.24
2018-07-09T08:01:50.462Z,24.22
2018-07-09T08:02:50.486Z,24.20
2018-07-09T08:03:50.438Z,24.23
2018-07-09T08:04:50.423Z,24.29
2018-07-09T08:05:50.415Z,24.38
2018-07-09T08:06:50.406Z,24.35
2018-07-09T08:07:50.390Z,24.45
2018-07-09T08:08:50.418Z,24.44
2018-07-09T08:09:50.369Z,24.67
2018-07-09T08:10:50.360Z,24.57
2018-07-09T08:11:50.347Z,24.75
2018-07-09T08:13:51.359Z,24.87
2018-07-09T08:14:50.311Z,24.83
2018-07-09T08:15:50.306Z,24.83
2018-07-09T08:16:50.298Z,24.91
2018-07-09T08:17:50.285Z,25.13
2018-07-09T08:18:50.270Z,25.09
2018-07-09T08:19:50.279Z,25.09
2018-07-09T08:20:50.253Z,25.01
2018-07-09T08:21:50.244Z,25.15
2018-07-09T08:22:50.233Z,25.13
2018-07-09T08:23:50.231Z,25.09
2018-07-09T08:24:50.336Z,25.15
2018-07-09T08:25:50.200Z,25.31
2018-07-09T08:26:50.181Z,25.37
2018-07-09T08:27:50.173Z,25.28
2018-07-09T08:28:50.165Z,25.39
2018-07-09T08:29:50.302Z,25.43
2018-07-09T08:30:50.175Z,25.38
2018-07-09T08:31:50.132Z,25.22
2018-07-09T08:32:50.123Z,25.13
2018-07-09T08:33:50.110Z,25.16
2018-07-09T08:34:50.102Z,25.20
2018-07-09T08:35:50.086Z,25.16
2018-07-09T08:36:50.101Z,25.12
2018-07-09T08:37:50.083Z,25.25
2018-07-09T08:38:50.056Z,25.31
2018-07-09T08:39:50.045Z,25.38
2018-07-09T08:40:50.032Z,25.46
2018-07-09T08:41:50.057Z,25.59
2018-07-09T08:42:50.010Z,25.64
2018-07-09T08:43:49.996Z,25.72
2018-07-09T08:44:49.997Z,25.97
2018-07-09T08:45:49.974Z,26.05
2018-07-09T08:47:59.425Z,26.21
2018-07-09T08:48:58.677Z,26.21
2018-07-09T08:49:58.659Z,26.22
2018-07-09T08:50:58.646Z,26.20
2018-07-09T08:51:58.640Z,26.18
2018-07-09T08:52:58.655Z,26.18
2018-07-09T08:53:58.622Z,26.18
2018-07-09T08:54:58.611Z,26.21
2018-07-09T08:55:58.593Z,26.17
2018-07-09T08:56:58.590Z,26.28
2018-07-09T08:57:58.604Z,26.35
2018-07-09T08:58:58.561Z,26.40
2018-07-09T08:59:58.560Z,26.29
2018-07-09T09:00:58.536Z,26.42
2018-07-09T09:01:58.539Z,26.24
2018-07-09T09:02:58.516Z,26.17
2018-07-09T09:03:58.513Z,26.17
2018-07-09T09:04:58.501Z,26.28
2018-07-09T09:05:58.487Z,26.28
2018-07-09T09:06:58.477Z,26.22
2018-07-09T09:07:58.471Z,26.29
2018-07-09T09:08:58.463Z,26.37
2018-07-09T09:09:58.468Z,26.64
2018-07-09T09:10:58.438Z,26.99
2018-07-09T09:11:58.424Z,27.01
2018-07-09T09:12:58.417Z,27.24
2018-07-09T09:13:58.435Z,27.53
2018-07-09T09:14:58.398Z,27.73
2018-07-09T09:15:58.380Z,27.70
2018-07-09T09:16:58.380Z,27.84
2018-07-09T09:17:58.357Z,27.89
2018-07-09T09:18:58.350Z,28.07
2018-07-09T09:19:58.376Z,28.06
2018-07-09T09:20:58.331Z,28.06
2018-07-09T09:21:58.317Z,28.33
2018-07-09T09:22:58.306Z,28.33
2018-07-09T09:23:58.299Z,28.31
2018-07-09T09:24:58.286Z,28.48
2018-07-09T09:25:58.315Z,28.60
2018-07-09T09:26:58.274Z,28.63
2018-07-09T09:27:58.255Z,28.85
2018-07-09T09:28:58.256Z,28.96
2018-07-09T09:29:58.243Z,29.22
2018-07-09T09:30:58.231Z,29.34
2018-07-09T09:31:58.222Z,29.45
2018-07-09T09:32:58.219Z,29.66
2018-07-09T09:33:58.198Z,29.70
2018-07-09T09:34:58.184Z,29.62
2018-07-09T09:35:58.185Z,29.60
2018-07-09T09:36:58.210Z,29.72
2018-07-09T09:37:58.156Z,29.71
2018-07-09T09:38:58.205Z,29.75
2018-07-09T09:39:58.136Z,29.94
2018-07-09T09:40:58.127Z,29.93
2018-07-09T09:41:58.120Z,29.84
2018-07-09T09:42:58.149Z,29.84
2018-07-09T09:43:58.101Z,29.82
2018-07-09T09:44:58.087Z,30.03
2018-07-09T09:45:58.085Z,30.23
2018-07-09T09:46:58.071Z,30.40
2018-07-09T09:47:58.064Z,30.67
2018-07-09T09:48:58.081Z,30.87
2018-07-09T09:49:58.039Z,31.13
2018-07-09T09:50:58.039Z,31.46
2018-07-09T09:51:58.020Z,31.55
2018-07-09T09:52:58.018Z,31.80
2018-07-09T09:53:58.034Z,31.84
2018-07-09T09:54:57.996Z,31.87
2018-07-09T09:55:57.986Z,31.87
2018-07-09T09:56:57.984Z,31.45
2018-07-09T09:57:57.970Z,31.38
2018-07-09T09:58:57.963Z,31.26
2018-07-09T09:59:57.975Z,31.28
2018-07-09T10:00:57.942Z,31.35
2018-07-09T10:01:57.928Z,31.26
2018-07-09T10:02:57.922Z,31.30
2018-07-09T10:03:57.908Z,31.39
2018-07-09T10:04:57.893Z,31.30
2018-07-09T10:05:57.949Z,31.42
2018-07-09T10:06:57.875Z,31.45
2018-07-09T10:07:57.871Z,31.28
2018-07-09T10:08:57.859Z,31.27
2018-07-09T10:09:57.846Z,31.23
2018-07-09T10:10:57.840Z,31.15
2018-07-09T10:11:57.859Z,31.15
2018-07-09T10:12:57.821Z,31.13
2018-07-09T10:13:57.807Z,30.75
2018-07-09T10:14:57.794Z,30.76
2018-07-09T10:15:57.791Z,30.69
2018-07-09T10:16:57.884Z,30.68
2018-07-09T10:17:57.804Z,30.68
2018-07-09T10:18:57.756Z,30.74
2018-07-09T10:19:57.746Z,30.68
2018-07-09T10:20:57.734Z,30.72
2018-07-09T10:21:57.726Z,31.01
2018-07-09T10:22:57.856Z,31.28
2018-07-09T10:23:57.718Z,31.38
2018-07-09T10:24:57.694Z,31.58
2018-07-09T10:25:57.681Z,31.79
2018-07-09T10:26:57.673Z,32.07
2018-07-09T10:27:57.666Z,32.29
2018-07-09T10:28:57.694Z,32.42
2018-07-09T10:29:57.654Z,32.57
2018-07-09T10:30:57.644Z,32.62
2018-07-09T10:31:57.632Z,32.69
2018-07-09T10:32:57.627Z,32.80
2018-07-09T10:33:57.615Z,32.95
2018-07-09T10:34:57.639Z,33.26
2018-07-09T10:35:57.591Z,33.34
2018-07-09T10:36:57.586Z,33.48
2018-07-09T10:37:57.574Z,33.61
2018-07-09T10:38:57.564Z,33.85
2018-07-09T10:39:57.561Z,33.98
2018-07-09T10:40:57.579Z,34.09
2018-07-09T10:41:57.538Z,34.05
2018-07-09T10:42:57.529Z,34.01
2018-07-09T10:43:57.516Z,34.11
2018-07-09T10:44:57.509Z,34.38
2018-07-09T10:45:57.536Z,34.36
2018-07-09T10:46:57.497Z,34.26
2018-07-09T10:47:57.482Z,34.13
2018-07-09T10:48:57.476Z,34.13
2018-07-09T10:49:57.466Z,34.02
2018-07-09T10:50:57.456Z,33.94
2018-07-09T10:51:57.476Z,33.73
2018-07-09T10:52:57.433Z,33.37
2018-07-09T10:53:57.428Z,33.31
2018-07-09T10:54:57.411Z,33.10
2018-07-09T10:55:57.408Z,33.13
2018-07-09T10:56:57.389Z,33.06
2018-07-09T10:57:57.417Z,33.01
2018-07-09T10:58:57.369Z,32.84
2018-07-09T10:59:57.363Z,32.70
2018-07-09T11:00:57.352Z,32.40
2018-07-09T11:01:57.344Z,32.24
2018-07-09T11:02:57.327Z,32.14
2018-07-09T11:03:57.354Z,32.02
2018-07-09T11:04:57.306Z,31.80
2018-07-09T11:05:57.305Z,31.67
2018-07-09T11:06:57.290Z,31.55
2018-07-09T11:07:57.282Z,31.39
2018-07-09T11:08:57.300Z,31.28
2018-07-09T11:09:57.261Z,31.12
2018-07-09T11:10:57.252Z,30.96
2018-07-09T11:11:57.233Z,30.89
2018-07-09T11:12:57.230Z,30.71
2018-07-09T11:13:57.210Z,30.49
2018-07-09T11:14:57.244Z,30.36
2018-07-09T11:15:57.201Z,30.18
2018-07-09T11:16:57.187Z,30.03
2018-07-09T11:17:57.171Z,29.79
2018-07-09T11:18:57.159Z,29.53
2018-07-09T11:19:57.152Z,29.35
2018-07-09T11:20:57.162Z,29.20
2018-07-09T11:21:57.137Z,29.10
2018-07-09T11:22:57.114Z,28.96
2018-07-09T11:23:57.112Z,28.78
2018-07-09T11:24:57.096Z,28.72
2018-07-09T11:25:57.122Z,28.68
2018-07-09T11:26:57.076Z,28.68
2018-07-09T11:27:57.068Z,28.69
2018-07-09T11:28:57.055Z,28.65
2018-07-09T11:29:57.040Z,28.58
2018-07-09T11:30:57.031Z,28.56
2018-07-09T11:31:57.050Z,28.59
2018-07-09T11:32:57.014Z,28.58
2018-07-09T11:33:56.994Z,28.63
2018-07-09T11:34:56.984Z,28.84
2018-07-09T11:35:56.990Z,28.93
2018-07-09T11:36:56.968Z,28.97
2018-07-09T11:37:56.977Z,29.04
2018-07-09T11:38:56.943Z,29.10
2018-07-09T11:39:56.936Z,29.13
2018-07-09T11:40:56.926Z,29.19
2018-07-09T11:41:56.908Z,29.26
2018-07-09T11:42:56.937Z,29.29
2018-07-09T11:43:56.885Z,29.26
2018-07-09T11:44:56.878Z,29.23
2018-07-09T11:45:56.868Z,29.28
2018-07-09T11:46:56.857Z,29.23
2018-07-09T11:47:56.854Z,29.34
2018-07-09T11:48:56.859Z,29.22
2018-07-09T11:49:56.829Z,29.11
2018-07-09T11:50:56.818Z,28.93
2018-07-09T11:51:56.797Z,28.97
2018-07-09T11:52:56.790Z,28.90
2018-07-09T11:53:56.815Z,28.77
2018-07-09T11:54:56.771Z,28.66
2018-07-09T11:55:56.757Z,28.58
2018-07-09T11:56:56.743Z,28.58
2018-07-09T11:57:56.741Z,28.54
2018-07-09T11:58:56.753Z,28.54
2018-07-09T11:59:56.747Z,28.43
2018-07-09T12:00:56.704Z,28.25
2018-07-09T12:01:56.762Z,28.01
2018-07-09T12:02:56.689Z,27.88
2018-07-09T12:03:56.666Z,27.70
2018-07-09T12:04:56.665Z,27.58
2018-07-09T12:05:56.695Z,27.42
2018-07-09T12:06:56.633Z,27.53
2018-07-09T12:07:56.631Z,27.47
2018-07-09T12:08:56.611Z,27.66
2018-07-09T12:09:56.650Z,27.62
2018-07-09T12:10:56.595Z,27.58
2018-07-09T12:11:56.616Z,27.61
2018-07-09T12:12:56.576Z,27.73
2018-07-09T12:13:56.562Z,27.69
2018-07-09T12:14:56.548Z,27.79
2018-07-09T12:15:56.576Z,27.94
2018-07-09T12:16:56.529Z,28.13
2018-07-09T12:17:56.518Z,28.19
2018-07-09T12:18:56.501Z,28.35
2018-07-09T12:19:56.499Z,28.43
2018-07-09T12:20:56.479Z,28.51
2018-07-09T12:21:56.511Z,28.63
2018-07-09T12:22:56.461Z,28.56
2018-07-09T12:23:56.453Z,28.62
2018-07-09T12:24:56.439Z,28.70
2018-07-09T12:25:56.431Z,28.73
2018-07-09T12:26:56.414Z,28.81
2018-07-09T12:27:56.436Z,28.85
2018-07-09T12:28:56.454Z,29.04
2018-07-09T12:29:56.409Z,28.97
2018-07-09T12:30:56.371Z,29.19
2018-07-09T12:31:56.368Z,29.31
2018-07-09T12:32:56.372Z,29.41
2018-07-09T12:33:56.347Z,29.31
2018-07-09T12:34:56.332Z,29.35
2018-07-09T12:35:56.317Z,29.34
2018-07-09T12:36:56.311Z,29.52
2018-07-09T12:37:56.326Z,29.55
2018-07-09T12:38:56.285Z,29.60
2018-07-09T12:39:56.283Z,29.49
2018-07-09T12:40:56.269Z,29.44
2018-07-09T12:41:56.259Z,29.44
2018-07-09T12:42:56.277Z,29.41
2018-07-09T12:43:56.238Z,29.44
2018-07-09T12:44:56.229Z,29.50
2018-07-09T12:45:56.208Z,29.62
2018-07-09T12:46:56.204Z,29.53
2018-07-09T12:47:56.227Z,29.62
2018-07-09T12:48:56.187Z,29.77
2018-07-09T12:49:56.169Z,29.81
2018-07-09T12:50:56.157Z,29.84
2018-07-09T12:51:56.148Z,29.87
2018-07-09T12:52:56.141Z,29.97
2018-07-09T12:53:56.161Z,30.05
2018-07-09T12:54:56.122Z,30.07